< Typhoon 195303 1953 Season Typhoon 195305 >
Typhoon 195304 (KIT)
General InformationTrack Information on Google Maps || Disaster Info.ResourceGoogle EarthGE AnimationAtom FeedGeoJSON
Detalied Best Track (Time Zone = UTC)
Year Month Day Hour Lat. Long. Pressure (hPa) Wind (kt) Class Image Chart
1953 6 26 00 5.5 147.0 1004 0 2 -- Chart
1953 6 26 06 5.9 146.5 1002 0 9 -- Chart
1953 6 26 12 6.1 146.2 1000 0 9 -- Chart
1953 6 26 18 6.4 145.8 995 0 9 -- Chart
1953 6 27 00 6.7 145.4 992 0 9 -- Chart
1953 6 27 06 7.3 144.4 990 0 9 -- Chart
1953 6 27 12 7.5 143.7 990 0 9 -- Chart
1953 6 27 18 7.6 143.0 990 0 9 -- Chart
1953 6 28 00 7.7 142.3 990 0 9 -- Chart
1953 6 28 06 8.4 141.5 985 0 9 -- Chart
1953 6 28 12 9.1 140.8 970 0 9 -- Chart
1953 6 28 18 10.0 140.0 960 0 9 -- Chart
1953 6 29 00 11.0 139.2 956 0 9 -- Chart
1953 6 29 06 12.4 137.9 930 0 9 -- Chart
1953 6 29 12 13.4 136.7 920 0 9 -- Chart
1953 6 29 18 13.9 135.4 920 0 9 -- Chart
1953 6 30 00 14.1 134.1 910 0 9 -- Chart
1953 6 30 06 14.9 133.3 910 0 9 -- Chart
1953 6 30 12 15.3 132.2 910 0 9 -- Chart
1953 6 30 18 15.6 131.0 910 0 9 -- Chart
1953 7 1 00 15.8 129.9 910 0 9 -- Chart
1953 7 1 06 17.0 129.7 910 0 9 -- Chart
1953 7 1 12 17.2 129.0 910 0 9 -- Chart
1953 7 1 18 17.6 128.2 910 0 9 -- Chart
1953 7 2 00 17.9 127.3 910 0 9 -- Chart
1953 7 2 06 18.5 127.0 910 0 9 -- Chart
1953 7 2 12 19.2 126.0 910 0 9 -- Chart
1953 7 2 18 20.0 125.0 910 0 9 -- Chart
1953 7 3 00 20.9 124.1 920 0 9 -- Chart
1953 7 3 06 21.7 123.5 935 0 9 -- Chart
1953 7 3 12 22.7 122.4 940 0 9 -- Chart
1953 7 3 18 23.8 121.3 945 0 9 -- Chart
1953 7 4 00 25.3 120.4 945 0 9 -- Chart
1953 7 4 06 26.0 119.1 955 0 9 -- Chart
1953 7 4 12 27.5 118.6 960 0 9 -- Chart
1953 7 4 18 28.8 118.0 970 0 9 -- Chart
1953 7 5 00 29.8 117.7 980 0 9 -- Chart
1953 7 5 06 30.8 117.2 985 0 9 -- Chart
1953 7 5 12 32.0 117.0 985 0 9 -- Chart
1953 7 5 18 33.0 117.3 990 0 9 -- Chart
1953 7 6 00 34.0 118.0 990 0 9 -- Chart
1953 7 6 06 35.4 119.0 990 0 9 -- Chart
1953 7 6 12 36.8 120.9 990 0 9 -- Chart
1953 7 6 18 38.0 123.0 990 0 9 -- Chart
1953 7 7 00 38.4 125.0 998 0 6 -- Chart
1953 7 7 06 38.8 126.1 998 0 6 -- Chart
1953 7 7 12 39.0 128.0 998 0 6 -- Chart
1953 7 7 18 40.0 131.0 998 0 6 -- Chart
1953 7 8 00 40.0 134.0 1000 0 6 -- Chart
Japan Meteorological Agency Best Track Data | Correction Date : 1990-10-17
< Typhoon 195303 1953 Season Typhoon 195305 >

Help